createdAt,value
2022-12-11T00:05:14.365Z,29.65
2022-12-11T00:12:16.302Z,28.92
2022-12-11T00:19:18.300Z,28.58
2022-12-11T00:26:20.313Z,34.08
2022-12-11T00:33:22.451Z,27.83
2022-12-11T00:40:24.425Z,23.42
2022-12-11T00:47:26.398Z,24.27
2022-12-11T00:54:28.557Z,20.67
2022-12-11T01:01:30.653Z,25.20
2022-12-11T01:08:38.116Z,29.40
2022-12-11T01:15:43.195Z,26.92
2022-12-11T01:22:45.397Z,24.77
2022-12-11T01:29:47.522Z,31.75
2022-12-11T01:36:49.490Z,21.00
2022-12-11T01:44:07.718Z,26.50
2022-12-11T01:51:09.937Z,23.52
2022-12-11T01:58:12.671Z,32.92
2022-12-11T02:05:15.032Z,27.35
2022-12-11T02:12:17.200Z,29.60
2022-12-11T02:19:25.325Z,24.50
2022-12-11T02:26:45.960Z,22.90
2022-12-11T02:33:54.248Z,17.85
2022-12-11T02:40:57.139Z,20.25
2022-12-11T02:48:00.397Z,20.33
2022-12-11T02:55:03.990Z,21.80
2022-12-11T03:02:06.604Z,21.30
2022-12-11T03:09:09.008Z,27.92
2022-12-11T03:16:38.430Z,17.10
2022-12-11T03:23:53.695Z,18.92
2022-12-11T03:30:57.075Z,17.33
2022-12-11T03:38:03.814Z,21.90
2022-12-11T03:45:07.066Z,13.20
2022-12-11T03:52:10.329Z,17.95
2022-12-11T03:59:12.830Z,12.77
2022-12-11T04:06:14.992Z,17.30
2022-12-11T04:13:17.245Z,11.63
2022-12-11T04:20:38.239Z,17.42
2022-12-11T04:27:52.338Z,29.88
2022-12-11T04:34:54.299Z,23.55
2022-12-11T04:41:56.243Z,20.17
2022-12-11T04:48:58.392Z,14.13
2022-12-11T04:56:00.604Z,16.17
2022-12-11T05:03:02.730Z,18.38
2022-12-11T05:10:05.782Z,27.05
2022-12-11T05:17:07.743Z,16.80
2022-12-11T05:24:09.763Z,17.52
2022-12-11T05:31:17.608Z,24.38
2022-12-11T05:38:19.969Z,20.58
2022-12-11T05:45:22.096Z,19.85
2022-12-11T05:52:24.130Z,19.58
2022-12-11T05:59:26.515Z,21.02
2022-12-11T06:06:28.777Z,25.52
2022-12-11T06:13:30.961Z,24.85
2022-12-11T06:20:34.409Z,27.02
2022-12-11T06:27:36.440Z,29.35
2022-12-11T06:34:38.599Z,24.00
2022-12-11T06:41:40.622Z,21.65
2022-12-11T06:48:43.336Z,29.48
2022-12-11T06:55:45.587Z,19.45
2022-12-11T07:02:47.719Z,24.83
2022-12-11T07:09:49.926Z,28.45
2022-12-11T07:16:52.239Z,14.98
2022-12-11T07:23:54.344Z,22.63
2022-12-11T07:30:56.349Z,21.55
2022-12-11T07:37:59.925Z,13.50
2022-12-11T07:45:01.951Z,12.32
2022-12-11T07:52:04.167Z,18.05
2022-12-11T07:59:06.817Z,16.58
2022-12-11T08:06:09.568Z,22.85
2022-12-11T08:13:12.080Z,21.60
2022-12-11T08:20:14.119Z,18.30
2022-12-11T08:27:16.276Z,26.38
2022-12-11T08:34:19.059Z,18.83
2022-12-11T08:41:26.621Z,15.73
2022-12-11T08:48:28.766Z,15.45
2022-12-11T08:55:30.736Z,14.40
2022-12-11T09:02:32.737Z,12.73
2022-12-11T09:09:35.058Z,13.23
2022-12-11T09:16:41.310Z,15.55
2022-12-11T09:23:44.037Z,17.35
2022-12-11T09:30:46.209Z,15.43
2022-12-11T09:37:48.484Z,12.48
2022-12-11T09:44:54.097Z,16.63
2022-12-11T09:52:02.147Z,17.13
2022-12-11T09:59:23.794Z,22.25
2022-12-11T10:06:47.604Z,17.38
2022-12-11T10:14:08.320Z,10.18
2022-12-11T10:21:10.976Z,10.68
2022-12-11T10:28:18.174Z,13.13
2022-12-11T10:35:28.556Z,16.80
2022-12-11T10:42:31.215Z,14.30
2022-12-11T10:49:35.804Z,15.75
2022-12-11T10:56:39.765Z,16.38
2022-12-11T11:04:07.279Z,8.70
2022-12-11T11:11:20.146Z,13.05
2022-12-11T11:18:27.573Z,17.55
2022-12-11T11:25:31.632Z,12.55
2022-12-11T11:32:39.491Z,7.18
2022-12-11T11:39:45.751Z,11.80
2022-12-11T11:47:00.114Z,15.40
2022-12-11T11:54:27.510Z,10.13
2022-12-11T12:01:30.716Z,9.70
2022-12-11T12:08:39.131Z,11.90
2022-12-11T12:15:50.783Z,11.00
2022-12-11T12:22:58.882Z,9.77
2022-12-11T12:30:15.008Z,7.53
2022-12-11T12:37:28.704Z,6.53
2022-12-11T12:44:36.853Z,18.58
2022-12-11T12:51:48.270Z,8.68
2022-12-11T12:58:52.950Z,8.10
2022-12-11T13:06:16.783Z,9.77
2022-12-11T13:14:09.480Z,8.85
2022-12-11T13:21:45.162Z,11.65
2022-12-11T13:28:52.175Z,10.25
2022-12-11T13:36:24.581Z,10.50
2022-12-11T13:43:30.823Z,6.55
2022-12-11T13:50:39.019Z,6.70
2022-12-11T13:57:48.608Z,13.77
2022-12-11T14:04:53.432Z,7.80
2022-12-11T14:11:57.596Z,14.27
2022-12-11T14:19:06.513Z,13.73
2022-12-11T14:26:23.279Z,7.22
2022-12-11T14:33:48.457Z,11.82
2022-12-11T14:40:59.810Z,7.40
2022-12-11T14:48:21.013Z,8.85
2022-12-11T14:55:50.782Z,4.18
2022-12-11T15:03:15.922Z,8.38
2022-12-11T15:10:29.163Z,5.22
2022-12-11T15:17:37.691Z,11.48
2022-12-11T15:24:44.176Z,14.75
2022-12-11T15:31:48.389Z,5.40
2022-12-11T15:38:50.527Z,11.50
2022-12-11T15:45:53.009Z,10.05
2022-12-11T15:52:56.550Z,14.18
2022-12-11T15:59:59.410Z,12.20
2022-12-11T16:07:03.924Z,42.05
2022-12-11T16:14:06.573Z,10.60
2022-12-11T16:21:08.855Z,10.30
2022-12-11T16:28:13.327Z,12.93
2022-12-11T16:35:26.694Z,11.57
2022-12-11T16:42:29.294Z,8.75
2022-12-11T16:49:33.520Z,9.43
2022-12-11T16:56:37.227Z,7.15
2022-12-11T17:03:40.627Z,6.88
2022-12-11T17:10:43.084Z,5.80
2022-12-11T17:17:46.161Z,10.85
2022-12-11T17:24:49.395Z,10.57
2022-12-11T17:31:53.214Z,8.93
2022-12-11T17:38:55.973Z,12.63
2022-12-11T17:45:58.295Z,6.28
2022-12-11T17:53:01.064Z,8.95
2022-12-11T18:00:03.805Z,6.65
2022-12-11T18:07:06.643Z,9.50
2022-12-11T18:14:15.255Z,9.80
2022-12-11T18:21:22.483Z,13.10
2022-12-11T18:28:25.700Z,9.52
2022-12-11T18:35:30.723Z,4.22
2022-12-11T18:42:34.670Z,9.95
2022-12-11T18:49:37.962Z,6.70
2022-12-11T18:56:42.847Z,8.82
2022-12-11T19:04:01.983Z,12.27
2022-12-11T19:11:07.004Z,15.10
2022-12-11T19:18:14.016Z,11.43
2022-12-11T19:25:17.040Z,11.00
2022-12-11T19:32:19.477Z,9.27
2022-12-11T19:39:24.111Z,11.75
2022-12-11T19:46:28.013Z,14.98
2022-12-11T19:53:31.622Z,6.93
2022-12-11T20:00:38.701Z,9.93
2022-12-11T20:07:43.425Z,5.80
2022-12-11T20:14:49.065Z,6.63
2022-12-11T20:21:54.170Z,8.75
2022-12-11T20:28:56.844Z,12.60
2022-12-11T20:35:59.694Z,14.15
2022-12-11T20:43:02.520Z,6.20
2022-12-11T20:50:05.941Z,15.48
2022-12-11T20:57:09.142Z,7.55
2022-12-11T21:04:11.837Z,7.60
2022-12-11T21:11:16.263Z,10.00
2022-12-11T21:18:25.096Z,8.82
2022-12-11T21:25:27.629Z,10.20
2022-12-11T21:32:30.498Z,16.13
2022-12-11T21:39:39.325Z,8.25
2022-12-11T21:46:44.234Z,12.27
2022-12-11T21:53:46.485Z,19.13
2022-12-11T22:00:48.722Z,10.35
2022-12-11T22:07:50.994Z,14.40
2022-12-11T22:14:53.223Z,12.15
2022-12-11T22:21:55.480Z,8.48
2022-12-11T22:28:58.464Z,10.27
2022-12-11T22:36:00.828Z,6.47
2022-12-11T22:43:03.019Z,7.78
2022-12-11T22:50:06.579Z,6.90
2022-12-11T22:57:09.325Z,6.45
2022-12-11T23:04:11.371Z,7.47
2022-12-11T23:11:22.615Z,6.05
2022-12-11T23:18:24.567Z,6.45
2022-12-11T23:25:28.262Z,7.03
2022-12-11T23:32:30.252Z,11.02
2022-12-11T23:39:32.286Z,12.88
2022-12-11T23:46:34.728Z,13.30
2022-12-11T23:53:36.712Z,6.82
